sensor_id;sensor_type;location;lat;lon;timestamp;temperature;humidity
18252;DHT22;26917;52.328;20.878;2022-11-06T00:01:32;7.60;99.90
18252;DHT22;26917;52.328;20.878;2022-11-06T00:04:00;7.50;99.90
18252;DHT22;26917;52.328;20.878;2022-11-06T00:06:32;7.60;99.90
18252;DHT22;26917;52.328;20.878;2022-11-06T00:09:29;7.50;99.90
18252;DHT22;26917;52.328;20.878;2022-11-06T00:11:57;7.50;99.90
18252;DHT22;26917;52.328;20.878;2022-11-06T00:14:26;7.40;99.90
18252;DHT22;26917;52.328;20.878;2022-11-06T00:16:54;7.40;99.90
18252;DHT22;26917;52.328;20.878;2022-11-06T00:19:24;7.40;99.90
18252;DHT22;26917;52.328;20.878;2022-11-06T00:21:54;7.30;99.90
18252;DHT22;26917;52.328;20.878;2022-11-06T00:24:22;7.30;99.90
18252;DHT22;26917;52.328;20.878;2022-11-06T00:26:51;7.20;99.90
18252;DHT22;26917;52.328;20.878;2022-11-06T00:29:20;7.20;99.90
18252;DHT22;26917;52.328;20.878;2022-11-06T00:31:49;7.20;99.90
18252;DHT22;26917;52.328;20.878;2022-11-06T00:34:17;7.20;99.90
18252;DHT22;26917;52.328;20.878;2022-11-06T00:36:46;7.10;99.90
18252;DHT22;26917;52.328;20.878;2022-11-06T00:39:16;7.10;99.90
18252;DHT22;26917;52.328;20.878;2022-11-06T00:41:45;7.00;99.90
18252;DHT22;26917;52.328;20.878;2022-11-06T00:44:16;7.00;99.90
18252;DHT22;26917;52.328;20.878;2022-11-06T00:46:45;7.00;99.90
18252;DHT22;26917;52.328;20.878;2022-11-06T00:49:13;6.90;99.90
18252;DHT22;26917;52.328;20.878;2022-11-06T00:51:41;7.10;99.90
18252;DHT22;26917;52.328;20.878;2022-11-06T00:54:11;6.90;99.90
18252;DHT22;26917;52.328;20.878;2022-11-06T00:56:42;6.80;99.90
18252;DHT22;26917;52.328;20.878;2022-11-06T00:59:11;6.90;99.90
18252;DHT22;26917;52.328;20.878;2022-11-06T01:01:42;6.90;99.90
18252;DHT22;26917;52.328;20.878;2022-11-06T01:04:14;6.80;99.90
18252;DHT22;26917;52.328;20.878;2022-11-06T01:06:45;6.80;99.90
18252;DHT22;26917;52.328;20.878;2022-11-06T01:09:16;6.90;99.90
18252;DHT22;26917;52.328;20.878;2022-11-06T01:11:48;6.80;99.90
18252;DHT22;26917;52.328;20.878;2022-11-06T01:14:38;6.80;99.90
18252;DHT22;26917;52.328;20.878;2022-11-06T01:17:06;6.70;99.90
18252;DHT22;26917;52.328;20.878;2022-11-06T01:19:35;6.70;99.90
18252;DHT22;26917;52.328;20.878;2022-11-06T01:22:03;6.70;99.90
18252;DHT22;26917;52.328;20.878;2022-11-06T01:24:32;6.70;99.90
18252;DHT22;26917;52.328;20.878;2022-11-06T01:27:04;6.70;99.90
18252;DHT22;26917;52.328;20.878;2022-11-06T01:29:52;6.60;99.90
18252;DHT22;26917;52.328;20.878;2022-11-06T01:32:21;6.60;99.90
18252;DHT22;26917;52.328;20.878;2022-11-06T01:34:49;6.60;99.90
18252;DHT22;26917;52.328;20.878;2022-11-06T01:37:18;6.60;99.90
18252;DHT22;26917;52.328;20.878;2022-11-06T01:39:48;6.60;99.90
18252;DHT22;26917;52.328;20.878;2022-11-06T01:42:31;6.60;99.90
18252;DHT22;26917;52.328;20.878;2022-11-06T01:45:20;6.50;99.90
18252;DHT22;26917;52.328;20.878;2022-11-06T01:47:50;6.50;99.90
18252;DHT22;26917;52.328;20.878;2022-11-06T01:50:19;6.60;99.90
18252;DHT22;26917;52.328;20.878;2022-11-06T01:52:48;6.60;99.90
18252;DHT22;26917;52.328;20.878;2022-11-06T01:55:21;6.50;99.90
18252;DHT22;26917;52.328;20.878;2022-11-06T01:57:51;6.50;99.90
18252;DHT22;26917;52.328;20.878;2022-11-06T02:00:21;6.60;99.90
18252;DHT22;26917;52.328;20.878;2022-11-06T02:02:50;6.60;99.90
18252;DHT22;26917;52.328;20.878;2022-11-06T02:05:40;6.50;99.90
18252;DHT22;26917;52.328;20.878;2022-11-06T02:08:18;6.50;99.90
18252;DHT22;26917;52.328;20.878;2022-11-06T02:10:48;6.60;99.90
18252;DHT22;26917;52.328;20.878;2022-11-06T02:13:28;6.50;99.90
18252;DHT22;26917;52.328;20.878;2022-11-06T02:16:06;6.50;99.90
18252;DHT22;26917;52.328;20.878;2022-11-06T02:18:48;6.50;99.90
18252;DHT22;26917;52.328;20.878;2022-11-06T02:21:42;6.40;99.90
18252;DHT22;26917;52.328;20.878;2022-11-06T02:27:13;6.30;99.90
18252;DHT22;26917;52.328;20.878;2022-11-06T02:29:48;6.20;99.90
18252;DHT22;26917;52.328;20.878;2022-11-06T02:32:23;6.20;99.90
18252;DHT22;26917;52.328;20.878;2022-11-06T02:34:55;6.10;99.90
18252;DHT22;26917;52.328;20.878;2022-11-06T02:37:28;6.10;99.90
18252;DHT22;26917;52.328;20.878;2022-11-06T02:40:00;6.00;99.90
18252;DHT22;26917;52.328;20.878;2022-11-06T02:42:41;5.90;99.90
18252;DHT22;26917;52.328;20.878;2022-11-06T02:45:12;6.00;99.90
18252;DHT22;26917;52.328;20.878;2022-11-06T02:47:43;5.90;99.90
18252;DHT22;26917;52.328;20.878;2022-11-06T02:50:16;5.90;99.90
18252;DHT22;26917;52.328;20.878;2022-11-06T02:52:50;5.80;99.90
18252;DHT22;26917;52.328;20.878;2022-11-06T02:55:23;5.80;99.90
18252;DHT22;26917;52.328;20.878;2022-11-06T02:57:59;5.80;99.90
18252;DHT22;26917;52.328;20.878;2022-11-06T03:00:31;5.70;99.90
18252;DHT22;26917;52.328;20.878;2022-11-06T03:03:04;5.70;99.90
18252;DHT22;26917;52.328;20.878;2022-11-06T03:05:37;5.60;99.90
18252;DHT22;26917;52.328;20.878;2022-11-06T03:08:09;5.60;99.90
18252;DHT22;26917;52.328;20.878;2022-11-06T03:10:46;5.60;99.90
18252;DHT22;26917;52.328;20.878;2022-11-06T03:13:23;5.60;99.90
18252;DHT22;26917;52.328;20.878;2022-11-06T03:16:01;5.50;99.90
18252;DHT22;26917;52.328;20.878;2022-11-06T03:18:35;5.50;99.90
18252;DHT22;26917;52.328;20.878;2022-11-06T03:21:07;5.50;99.90
18252;DHT22;26917;52.328;20.878;2022-11-06T03:23:54;5.50;99.90
18252;DHT22;26917;52.328;20.878;2022-11-06T03:26:28;5.50;99.90
18252;DHT22;26917;52.328;20.878;2022-11-06T03:29:09;5.40;99.90
18252;DHT22;26917;52.328;20.878;2022-11-06T03:31:42;5.40;99.90
18252;DHT22;26917;52.328;20.878;2022-11-06T03:34:16;5.30;99.90
18252;DHT22;26917;52.328;20.878;2022-11-06T03:36:50;5.30;99.90
18252;DHT22;26917;52.328;20.878;2022-11-06T03:39:24;5.20;99.90
18252;DHT22;26917;52.328;20.878;2022-11-06T03:42:00;5.20;99.90
18252;DHT22;26917;52.328;20.878;2022-11-06T03:44:34;5.10;99.90
18252;DHT22;26917;52.328;20.878;2022-11-06T03:47:08;5.00;99.90
18252;DHT22;26917;52.328;20.878;2022-11-06T03:49:42;5.00;99.90
18252;DHT22;26917;52.328;20.878;2022-11-06T03:52:17;4.90;99.90
18252;DHT22;26917;52.328;20.878;2022-11-06T03:54:50;4.90;99.90
18252;DHT22;26917;52.328;20.878;2022-11-06T03:57:24;4.80;99.90
18252;DHT22;26917;52.328;20.878;2022-11-06T03:59:58;4.80;99.90
18252;DHT22;26917;52.328;20.878;2022-11-06T04:02:41;4.80;99.90
18252;DHT22;26917;52.328;20.878;2022-11-06T04:05:14;4.70;99.90
18252;DHT22;26917;52.328;20.878;2022-11-06T04:07:47;4.60;99.90
18252;DHT22;26917;52.328;20.878;2022-11-06T04:10:30;4.70;99.90
18252;DHT22;26917;52.328;20.878;2022-11-06T04:13:18;4.60;99.90
18252;DHT22;26917;52.328;20.878;2022-11-06T04:16:09;4.60;99.90
18252;DHT22;26917;52.328;20.878;2022-11-06T04:18:39;4.60;99.90
18252;DHT22;26917;52.328;20.878;2022-11-06T04:21:12;4.50;99.90
18252;DHT22;26917;52.328;20.878;2022-11-06T04:24:01;4.50;99.90
18252;DHT22;26917;52.328;20.878;2022-11-06T04:27:09;4.50;99.90
18252;DHT22;26917;52.328;20.878;2022-11-06T04:29:47;4.50;99.90
18252;DHT22;26917;52.328;20.878;2022-11-06T04:32:26;4.40;99.90
18252;DHT22;26917;52.328;20.878;2022-11-06T04:35:04;4.40;99.90
18252;DHT22;26917;52.328;20.878;2022-11-06T04:37:39;4.40;99.90
18252;DHT22;26917;52.328;20.878;2022-11-06T04:40:15;4.40;99.90
18252;DHT22;26917;52.328;20.878;2022-11-06T04:42:51;4.30;99.90
18252;DHT22;26917;52.328;20.878;2022-11-06T04:45:25;4.30;99.90
18252;DHT22;26917;52.328;20.878;2022-11-06T04:47:59;4.10;99.90
18252;DHT22;26917;52.328;20.878;2022-11-06T04:50:31;4.20;99.90
18252;DHT22;26917;52.328;20.878;2022-11-06T04:53:02;4.20;99.90
18252;DHT22;26917;52.328;20.878;2022-11-06T04:55:31;4.10;99.90
18252;DHT22;26917;52.328;20.878;2022-11-06T04:58:00;4.10;99.90
18252;DHT22;26917;52.328;20.878;2022-11-06T05:00:29;4.10;99.90
18252;DHT22;26917;52.328;20.878;2022-11-06T05:02:59;4.00;99.90
18252;DHT22;26917;52.328;20.878;2022-11-06T05:05:41;4.00;99.90
18252;DHT22;26917;52.328;20.878;2022-11-06T05:08:12;4.00;99.90
18252;DHT22;26917;52.328;20.878;2022-11-06T05:10:42;4.00;99.90
18252;DHT22;26917;52.328;20.878;2022-11-06T05:13:13;4.00;99.90
18252;DHT22;26917;52.328;20.878;2022-11-06T05:15:41;3.90;99.90
18252;DHT22;26917;52.328;20.878;2022-11-06T05:18:11;3.90;99.90
18252;DHT22;26917;52.328;20.878;2022-11-06T05:20:40;3.90;99.90
18252;DHT22;26917;52.328;20.878;2022-11-06T05:23:08;3.80;99.90
18252;DHT22;26917;52.328;20.878;2022-11-06T05:25:37;3.70;99.90
18252;DHT22;26917;52.328;20.878;2022-11-06T05:28:07;3.60;99.90
18252;DHT22;26917;52.328;20.878;2022-11-06T05:30:36;3.60;99.90
18252;DHT22;26917;52.328;20.878;2022-11-06T05:33:04;3.50;99.90
18252;DHT22;26917;52.328;20.878;2022-11-06T05:35:34;3.60;99.90
18252;DHT22;26917;52.328;20.878;2022-11-06T05:38:02;3.50;99.90
18252;DHT22;26917;52.328;20.878;2022-11-06T05:40:31;3.70;99.90
18252;DHT22;26917;52.328;20.878;2022-11-06T05:43:00;3.50;99.90
18252;DHT22;26917;52.328;20.878;2022-11-06T05:45:28;3.60;99.90
18252;DHT22;26917;52.328;20.878;2022-11-06T05:47:57;3.60;99.90
18252;DHT22;26917;52.328;20.878;2022-11-06T05:50:25;3.60;99.90
18252;DHT22;26917;52.328;20.878;2022-11-06T05:52:55;3.60;99.90
18252;DHT22;26917;52.328;20.878;2022-11-06T05:55:24;3.60;99.90
18252;DHT22;26917;52.328;20.878;2022-11-06T05:57:52;3.70;99.90
18252;DHT22;26917;52.328;20.878;2022-11-06T06:00:20;3.60;99.90
18252;DHT22;26917;52.328;20.878;2022-11-06T06:02:49;3.60;99.90
18252;DHT22;26917;52.328;20.878;2022-11-06T06:05:17;3.60;99.90
18252;DHT22;26917;52.328;20.878;2022-11-06T06:07:46;3.60;99.90
18252;DHT22;26917;52.328;20.878;2022-11-06T06:10:16;3.60;99.90
18252;DHT22;26917;52.328;20.878;2022-11-06T06:12:44;3.70;99.90
18252;DHT22;26917;52.328;20.878;2022-11-06T06:15:13;3.60;99.90
18252;DHT22;26917;52.328;20.878;2022-11-06T06:17:42;3.60;99.90
18252;DHT22;26917;52.328;20.878;2022-11-06T06:20:12;3.70;99.90
18252;DHT22;26917;52.328;20.878;2022-11-06T06:22:55;3.70;99.90
18252;DHT22;26917;52.328;20.878;2022-11-06T06:25:28;3.90;99.90
18252;DHT22;26917;52.328;20.878;2022-11-06T06:27:56;3.80;99.90
18252;DHT22;26917;52.328;20.878;2022-11-06T06:30:25;3.80;99.90
18252;DHT22;26917;52.328;20.878;2022-11-06T06:32:54;3.90;99.90
18252;DHT22;26917;52.328;20.878;2022-11-06T06:35:23;4.00;99.90
18252;DHT22;26917;52.328;20.878;2022-11-06T06:37:52;4.10;99.90
18252;DHT22;26917;52.328;20.878;2022-11-06T06:40:21;3.90;99.90
18252;DHT22;26917;52.328;20.878;2022-11-06T06:42:54;3.90;99.90
18252;DHT22;26917;52.328;20.878;2022-11-06T06:45:24;4.00;99.90
18252;DHT22;26917;52.328;20.878;2022-11-06T06:47:52;4.20;99.90
18252;DHT22;26917;52.328;20.878;2022-11-06T06:50:20;4.10;99.90
18252;DHT22;26917;52.328;20.878;2022-11-06T06:52:49;4.10;99.90
18252;DHT22;26917;52.328;20.878;2022-11-06T06:55:21;4.10;99.90
18252;DHT22;26917;52.328;20.878;2022-11-06T06:57:56;4.30;99.90
18252;DHT22;26917;52.328;20.878;2022-11-06T07:00:25;4.30;99.90
18252;DHT22;26917;52.328;20.878;2022-11-06T07:02:54;4.20;99.90
18252;DHT22;26917;52.328;20.878;2022-11-06T07:05:23;4.20;99.90
18252;DHT22;26917;52.328;20.878;2022-11-06T07:07:51;4.20;99.90
18252;DHT22;26917;52.328;20.878;2022-11-06T07:10:19;4.20;99.90
18252;DHT22;26917;52.328;20.878;2022-11-06T07:12:47;4.20;99.90
18252;DHT22;26917;52.328;20.878;2022-11-06T07:15:17;4.20;99.90
18252;DHT22;26917;52.328;20.878;2022-11-06T07:17:46;4.30;99.90
18252;DHT22;26917;52.328;20.878;2022-11-06T07:20:14;4.40;99.90
18252;DHT22;26917;52.328;20.878;2022-11-06T07:22:43;4.50;99.90
18252;DHT22;26917;52.328;20.878;2022-11-06T07:25:11;4.50;99.90
18252;DHT22;26917;52.328;20.878;2022-11-06T07:27:40;4.60;99.90
18252;DHT22;26917;52.328;20.878;2022-11-06T07:30:10;4.60;99.90
18252;DHT22;26917;52.328;20.878;2022-11-06T07:32:40;4.70;99.90
18252;DHT22;26917;52.328;20.878;2022-11-06T07:35:09;4.80;99.90
18252;DHT22;26917;52.328;20.878;2022-11-06T07:37:37;4.80;99.90
18252;DHT22;26917;52.328;20.878;2022-11-06T07:40:07;4.80;99.90
18252;DHT22;26917;52.328;20.878;2022-11-06T07:42:37;4.90;99.90
18252;DHT22;26917;52.328;20.878;2022-11-06T07:45:15;4.90;99.90
18252;DHT22;26917;52.328;20.878;2022-11-06T07:47:45;5.00;99.90
18252;DHT22;26917;52.328;20.878;2022-11-06T07:50:13;5.10;99.90
18252;DHT22;26917;52.328;20.878;2022-11-06T07:52:42;5.10;99.90
18252;DHT22;26917;52.328;20.878;2022-11-06T07:55:10;5.10;99.90
18252;DHT22;26917;52.328;20.878;2022-11-06T07:57:39;5.20;99.90
18252;DHT22;26917;52.328;20.878;2022-11-06T08:00:10;5.30;99.90
18252;DHT22;26917;52.328;20.878;2022-11-06T08:02:38;5.20;99.90
18252;DHT22;26917;52.328;20.878;2022-11-06T08:05:09;5.30;99.90
18252;DHT22;26917;52.328;20.878;2022-11-06T08:07:37;5.20;99.90
18252;DHT22;26917;52.328;20.878;2022-11-06T08:10:07;5.30;99.90
18252;DHT22;26917;52.328;20.878;2022-11-06T08:12:35;5.30;99.90
18252;DHT22;26917;52.328;20.878;2022-11-06T08:15:05;5.30;99.90
18252;DHT22;26917;52.328;20.878;2022-11-06T08:17:33;5.30;99.90
18252;DHT22;26917;52.328;20.878;2022-11-06T08:20:02;5.40;99.90
18252;DHT22;26917;52.328;20.878;2022-11-06T08:22:32;5.40;99.90
18252;DHT22;26917;52.328;20.878;2022-11-06T08:25:01;5.50;99.90
18252;DHT22;26917;52.328;20.878;2022-11-06T08:27:30;5.50;99.90
18252;DHT22;26917;52.328;20.878;2022-11-06T08:29:58;5.60;99.90
18252;DHT22;26917;52.328;20.878;2022-11-06T08:32:27;5.70;99.90
18252;DHT22;26917;52.328;20.878;2022-11-06T08:34:55;5.80;99.90
18252;DHT22;26917;52.328;20.878;2022-11-06T08:37:24;5.70;99.90
18252;DHT22;26917;52.328;20.878;2022-11-06T08:39:53;5.80;99.90
18252;DHT22;26917;52.328;20.878;2022-11-06T08:42:22;5.80;99.90
18252;DHT22;26917;52.328;20.878;2022-11-06T08:44:50;5.80;99.90
18252;DHT22;26917;52.328;20.878;2022-11-06T08:47:19;5.90;99.90
18252;DHT22;26917;52.328;20.878;2022-11-06T08:49:47;5.90;99.90
18252;DHT22;26917;52.328;20.878;2022-11-06T08:52:15;5.90;99.90
18252;DHT22;26917;52.328;20.878;2022-11-06T08:54:44;6.00;99.90
18252;DHT22;26917;52.328;20.878;2022-11-06T08:57:22;6.00;99.90
18252;DHT22;26917;52.328;20.878;2022-11-06T08:59:51;6.20;99.90
18252;DHT22;26917;52.328;20.878;2022-11-06T09:02:19;6.20;99.90
18252;DHT22;26917;52.328;20.878;2022-11-06T09:04:48;6.20;99.90
18252;DHT22;26917;52.328;20.878;2022-11-06T09:07:16;6.20;99.90
18252;DHT22;26917;52.328;20.878;2022-11-06T09:09:45;6.30;99.90
18252;DHT22;26917;52.328;20.878;2022-11-06T09:12:15;6.30;99.90
18252;DHT22;26917;52.328;20.878;2022-11-06T09:14:44;6.40;99.90
18252;DHT22;26917;52.328;20.878;2022-11-06T09:17:13;6.50;99.90
18252;DHT22;26917;52.328;20.878;2022-11-06T09:19:41;6.50;99.90
18252;DHT22;26917;52.328;20.878;2022-11-06T09:22:10;6.50;99.90
18252;DHT22;26917;52.328;20.878;2022-11-06T09:24:39;6.70;99.90
18252;DHT22;26917;52.328;20.878;2022-11-06T09:30:30;6.60;99.90
18252;DHT22;26917;52.328;20.878;2022-11-06T09:33:00;6.60;99.90
18252;DHT22;26917;52.328;20.878;2022-11-06T09:35:33;6.60;99.90
18252;DHT22;26917;52.328;20.878;2022-11-06T09:38:03;6.60;99.90
18252;DHT22;26917;52.328;20.878;2022-11-06T09:40:33;6.70;99.90
18252;DHT22;26917;52.328;20.878;2022-11-06T09:43:10;6.60;99.90
18252;DHT22;26917;52.328;20.878;2022-11-06T09:45:44;6.70;99.90
18252;DHT22;26917;52.328;20.878;2022-11-06T09:48:24;6.70;99.90
18252;DHT22;26917;52.328;20.878;2022-11-06T09:50:59;6.70;99.90
18252;DHT22;26917;52.328;20.878;2022-11-06T09:53:31;6.80;99.90
18252;DHT22;26917;52.328;20.878;2022-11-06T09:56:02;6.90;99.90
18252;DHT22;26917;52.328;20.878;2022-11-06T09:58:34;6.80;99.90
18252;DHT22;26917;52.328;20.878;2022-11-06T10:01:13;6.80;99.90
18252;DHT22;26917;52.328;20.878;2022-11-06T10:03:54;6.80;99.90
18252;DHT22;26917;52.328;20.878;2022-11-06T10:06:24;6.70;99.90
18252;DHT22;26917;52.328;20.878;2022-11-06T10:08:55;6.60;99.90
18252;DHT22;26917;52.328;20.878;2022-11-06T10:11:40;6.60;99.90
18252;DHT22;26917;52.328;20.878;2022-11-06T10:14:23;6.70;99.90
18252;DHT22;26917;52.328;20.878;2022-11-06T10:17:16;6.60;99.90
18252;DHT22;26917;52.328;20.878;2022-11-06T10:19:50;6.70;99.90
18252;DHT22;26917;52.328;20.878;2022-11-06T10:22:27;6.80;99.90
18252;DHT22;26917;52.328;20.878;2022-11-06T10:25:07;6.80;99.90
18252;DHT22;26917;52.328;20.878;2022-11-06T10:27:40;6.80;99.90
18252;DHT22;26917;52.328;20.878;2022-11-06T10:30:10;6.90;99.90
18252;DHT22;26917;52.328;20.878;2022-11-06T10:33:04;7.00;99.90
18252;DHT22;26917;52.328;20.878;2022-11-06T10:35:38;7.00;99.90
18252;DHT22;26917;52.328;20.878;2022-11-06T10:38:12;7.20;99.90
18252;DHT22;26917;52.328;20.878;2022-11-06T10:40:43;7.30;99.90
18252;DHT22;26917;52.328;20.878;2022-11-06T10:43:23;7.20;99.90
18252;DHT22;26917;52.328;20.878;2022-11-06T10:46:02;7.30;99.90
18252;DHT22;26917;52.328;20.878;2022-11-06T10:48:37;7.40;99.90
18252;DHT22;26917;52.328;20.878;2022-11-06T10:51:21;7.30;99.90
18252;DHT22;26917;52.328;20.878;2022-11-06T10:53:59;7.40;99.90
18252;DHT22;26917;52.328;20.878;2022-11-06T10:56:49;7.40;99.90
18252;DHT22;26917;52.328;20.878;2022-11-06T10:59:24;7.50;99.90
18252;DHT22;26917;52.328;20.878;2022-11-06T11:01:52;7.50;99.90
18252;DHT22;26917;52.328;20.878;2022-11-06T11:04:26;7.60;99.90
18252;DHT22;26917;52.328;20.878;2022-11-06T11:06:54;7.70;99.90
18252;DHT22;26917;52.328;20.878;2022-11-06T11:09:29;7.70;99.90
18252;DHT22;26917;52.328;20.878;2022-11-06T11:12:37;7.70;99.90
18252;DHT22;26917;52.328;20.878;2022-11-06T11:15:43;7.70;99.90
18252;DHT22;26917;52.328;20.878;2022-11-06T11:18:16;7.70;99.90
18252;DHT22;26917;52.328;20.878;2022-11-06T11:21:24;7.70;99.90
18252;DHT22;26917;52.328;20.878;2022-11-06T11:24:22;7.70;99.90
18252;DHT22;26917;52.328;20.878;2022-11-06T11:27:24;7.60;99.90
18252;DHT22;26917;52.328;20.878;2022-11-06T11:30:26;7.60;99.90
18252;DHT22;26917;52.328;20.878;2022-11-06T11:37:06;7.50;99.90
18252;DHT22;26917;52.328;20.878;2022-11-06T11:40:34;7.80;99.90
18252;DHT22;26917;52.328;20.878;2022-11-06T11:43:56;7.90;99.90
18252;DHT22;26917;52.328;20.878;2022-11-06T11:47:18;7.80;99.90
18252;DHT22;26917;52.328;20.878;2022-11-06T11:50:51;7.90;99.90
18252;DHT22;26917;52.328;20.878;2022-11-06T12:02:59;7.90;99.90
18252;DHT22;26917;52.328;20.878;2022-11-06T12:06:27;8.00;99.90
18252;DHT22;26917;52.328;20.878;2022-11-06T12:13:17;7.80;99.90
18252;DHT22;26917;52.328;20.878;2022-11-06T12:20:49;7.90;99.90
18252;DHT22;26917;52.328;20.878;2022-11-06T12:35:42;8.10;99.90
18252;DHT22;26917;52.328;20.878;2022-11-06T13:03:32;7.00;99.90
18252;DHT22;26917;52.328;20.878;2022-11-06T13:58:00;6.70;99.90
18252;DHT22;26917;52.328;20.878;2022-11-06T14:23:56;6.60;99.90
18252;DHT22;26917;52.328;20.878;2022-11-06T14:58:53;6.00;99.90
18252;DHT22;26917;52.328;20.878;2022-11-06T15:06:49;5.90;99.90
18252;DHT22;26917;52.328;20.878;2022-11-06T15:10:59;5.80;99.90
18252;DHT22;26917;52.328;20.878;2022-11-06T15:17:42;5.70;99.90
18252;DHT22;26917;52.328;20.878;2022-11-06T15:21:43;5.60;99.90
18252;DHT22;26917;52.328;20.878;2022-11-06T15:25:32;5.60;99.90
18252;DHT22;26917;52.328;20.878;2022-11-06T15:29:33;5.50;99.90
18252;DHT22;26917;52.328;20.878;2022-11-06T15:36:33;5.40;99.90
18252;DHT22;26917;52.328;20.878;2022-11-06T15:39:49;5.40;99.90
18252;DHT22;26917;52.328;20.878;2022-11-06T15:43:04;5.30;99.90
18252;DHT22;26917;52.328;20.878;2022-11-06T16:01:40;4.90;99.90
18252;DHT22;26917;52.328;20.878;2022-11-06T16:08:09;4.80;99.90
18252;DHT22;26917;52.328;20.878;2022-11-06T16:11:39;4.70;99.90
18252;DHT22;26917;52.328;20.878;2022-11-06T16:37:45;4.40;99.90
18252;DHT22;26917;52.328;20.878;2022-11-06T17:01:02;4.20;99.90
18252;DHT22;26917;52.328;20.878;2022-11-06T17:05:11;4.20;99.90
18252;DHT22;26917;52.328;20.878;2022-11-06T17:27:48;4.00;99.90
18252;DHT22;26917;52.328;20.878;2022-11-06T17:31:35;4.00;99.90
18252;DHT22;26917;52.328;20.878;2022-11-06T17:34:44;4.00;99.90
18252;DHT22;26917;52.328;20.878;2022-11-06T17:37:30;4.10;99.90
18252;DHT22;26917;52.328;20.878;2022-11-06T17:40:08;4.00;99.90
18252;DHT22;26917;52.328;20.878;2022-11-06T17:42:59;4.00;99.90
18252;DHT22;26917;52.328;20.878;2022-11-06T17:45:51;4.00;99.90
18252;DHT22;26917;52.328;20.878;2022-11-06T17:49:00;4.00;99.90
18252;DHT22;26917;52.328;20.878;2022-11-06T17:55:23;3.90;99.90
18252;DHT22;26917;52.328;20.878;2022-11-06T17:58:03;3.90;99.90
18252;DHT22;26917;52.328;20.878;2022-11-06T18:00:48;3.80;99.90
18252;DHT22;26917;52.328;20.878;2022-11-06T18:03:52;3.80;99.90
18252;DHT22;26917;52.328;20.878;2022-11-06T18:06:42;3.80;99.90
18252;DHT22;26917;52.328;20.878;2022-11-06T18:09:18;3.80;99.90
18252;DHT22;26917;52.328;20.878;2022-11-06T18:16:40;3.70;99.90
18252;DHT22;26917;52.328;20.878;2022-11-06T18:19:24;3.70;99.90
18252;DHT22;26917;52.328;20.878;2022-11-06T18:21:53;3.70;99.90
18252;DHT22;26917;52.328;20.878;2022-11-06T18:24:24;3.70;99.90
18252;DHT22;26917;52.328;20.878;2022-11-06T18:27:00;3.60;99.90
18252;DHT22;26917;52.328;20.878;2022-11-06T18:29:31;3.60;99.90
18252;DHT22;26917;52.328;20.878;2022-11-06T18:32:01;3.60;99.90
18252;DHT22;26917;52.328;20.878;2022-11-06T18:34:47;3.60;99.90
18252;DHT22;26917;52.328;20.878;2022-11-06T18:37:30;3.60;99.90
18252;DHT22;26917;52.328;20.878;2022-11-06T18:39:58;3.70;99.90
18252;DHT22;26917;52.328;20.878;2022-11-06T18:42:33;3.50;99.90
18252;DHT22;26917;52.328;20.878;2022-11-06T18:45:18;3.50;99.90
18252;DHT22;26917;52.328;20.878;2022-11-06T18:47:59;3.40;99.90
18252;DHT22;26917;52.328;20.878;2022-11-06T18:50:45;3.50;99.90
18252;DHT22;26917;52.328;20.878;2022-11-06T18:53:24;3.30;99.90
18252;DHT22;26917;52.328;20.878;2022-11-06T18:55:53;3.20;99.90
18252;DHT22;26917;52.328;20.878;2022-11-06T18:58:25;3.30;99.90
18252;DHT22;26917;52.328;20.878;2022-11-06T19:01:04;3.20;99.90
18252;DHT22;26917;52.328;20.878;2022-11-06T19:03:43;3.20;99.90
18252;DHT22;26917;52.328;20.878;2022-11-06T19:06:19;3.00;99.90
18252;DHT22;26917;52.328;20.878;2022-11-06T19:08:55;3.10;99.90
18252;DHT22;26917;52.328;20.878;2022-11-06T19:11:27;3.00;99.90
18252;DHT22;26917;52.328;20.878;2022-11-06T19:14:04;3.00;99.90
18252;DHT22;26917;52.328;20.878;2022-11-06T19:16:47;3.40;99.90
18252;DHT22;26917;52.328;20.878;2022-11-06T19:19:32;2.90;99.90
18252;DHT22;26917;52.328;20.878;2022-11-06T19:22:00;2.90;99.90
18252;DHT22;26917;52.328;20.878;2022-11-06T19:24:31;2.90;99.90
18252;DHT22;26917;52.328;20.878;2022-11-06T19:27:00;3.20;99.90
18252;DHT22;26917;52.328;20.878;2022-11-06T19:29:36;2.90;99.90
18252;DHT22;26917;52.328;20.878;2022-11-06T19:32:12;3.10;99.90
18252;DHT22;26917;52.328;20.878;2022-11-06T19:38:34;2.80;99.90
18252;DHT22;26917;52.328;20.878;2022-11-06T19:41:16;2.90;99.90
18252;DHT22;26917;52.328;20.878;2022-11-06T19:43:58;2.70;99.90
18252;DHT22;26917;52.328;20.878;2022-11-06T19:46:29;2.80;99.90
18252;DHT22;26917;52.328;20.878;2022-11-06T19:49:02;2.80;99.90
18252;DHT22;26917;52.328;20.878;2022-11-06T19:51:32;2.70;99.90
18252;DHT22;26917;52.328;20.878;2022-11-06T19:54:05;2.70;99.90
18252;DHT22;26917;52.328;20.878;2022-11-06T19:56:33;3.30;99.90
18252;DHT22;26917;52.328;20.878;2022-11-06T19:59:22;2.70;99.90
18252;DHT22;26917;52.328;20.878;2022-11-06T20:01:50;2.80;99.90
18252;DHT22;26917;52.328;20.878;2022-11-06T20:04:19;2.80;99.90
18252;DHT22;26917;52.328;20.878;2022-11-06T20:06:58;2.80;99.90
18252;DHT22;26917;52.328;20.878;2022-11-06T20:13:06;2.80;99.90
18252;DHT22;26917;52.328;20.878;2022-11-06T20:16:10;2.80;99.90
18252;DHT22;26917;52.328;20.878;2022-11-06T20:19:10;2.90;99.90
18252;DHT22;26917;52.328;20.878;2022-11-06T20:22:22;2.90;99.90
18252;DHT22;26917;52.328;20.878;2022-11-06T20:25:10;3.10;99.90
18252;DHT22;26917;52.328;20.878;2022-11-06T20:28:09;3.20;99.90
18252;DHT22;26917;52.328;20.878;2022-11-06T20:30:39;2.90;99.90
18252;DHT22;26917;52.328;20.878;2022-11-06T20:33:08;3.20;99.90
18252;DHT22;26917;52.328;20.878;2022-11-06T20:35:36;2.80;99.90
18252;DHT22;26917;52.328;20.878;2022-11-06T20:38:09;3.10;99.90
18252;DHT22;26917;52.328;20.878;2022-11-06T20:40:41;2.80;99.90
18252;DHT22;26917;52.328;20.878;2022-11-06T20:43:22;2.80;99.90
18252;DHT22;26917;52.328;20.878;2022-11-06T20:46:10;2.70;99.90
18252;DHT22;26917;52.328;20.878;2022-11-06T20:48:39;2.90;99.90
18252;DHT22;26917;52.328;20.878;2022-11-06T20:51:23;2.70;99.90
18252;DHT22;26917;52.328;20.878;2022-11-06T20:54:23;2.70;99.90
18252;DHT22;26917;52.328;20.878;2022-11-06T20:56:56;2.80;99.90
18252;DHT22;26917;52.328;20.878;2022-11-06T20:59:31;3.20;99.90
18252;DHT22;26917;52.328;20.878;2022-11-06T21:02:01;2.70;99.90
18252;DHT22;26917;52.328;20.878;2022-11-06T21:04:32;2.60;99.90
18252;DHT22;26917;52.328;20.878;2022-11-06T21:07:00;2.40;99.90
18252;DHT22;26917;52.328;20.878;2022-11-06T21:10:12;2.40;99.90
18252;DHT22;26917;52.328;20.878;2022-11-06T21:13:00;2.30;99.90
18252;DHT22;26917;52.328;20.878;2022-11-06T21:22:41;2.30;99.90
18252;DHT22;26917;52.328;20.878;2022-11-06T21:25:23;2.40;99.90
18252;DHT22;26917;52.328;20.878;2022-11-06T21:27:54;2.40;99.90